Scf Baltica — A8IA5 — position and weather

sailwx.info

Track history (hours):
 
Tides and Currents Weather Stations Pressure Air Temp Water Temp Dewpoint Dewpoint Depression Visibility Wind Speed Wind Dir Waves Ship Positions

Scf Baltica

Last reported at 2016-Jul-31 03:27 UTC. Time now 2016-Jul-31 09:25 UTC.
Position N 49°04' W 004°51'.

Length 250 m; draft 9 m.

Type: Ship. MMSI: 636012813.

Date/timePositionNaut miles runAvg speedWind from/ knotsBaromVisibWave heightAir tempDewpointWater temp
2016-Jul-31 03:27N 49°04' W 004°51'910.1
2016-Jul-31 02:33N 48°59' W 005°03'1510.2
2016-Jul-31 01:06N 48°52' W 005°23'610.6
2016-Jul-31 00:33N 48°49' W 005°30'  
2016-Jul-28 06:18N 40°18' W 009°50'73 6.8
2016-Jul-27 19:32N 39°05' W 009°51'7 7.1
2016-Jul-27 18:33N 38°58' W 009°51'9 7.3
2016-Jul-27 17:22N 38°49' W 009°51'7 7.2
2016-Jul-27 16:27N 38°43' W 009°51'7 7.1
2016-Jul-27 15:32N 38°36' W 009°49'7 6.9
2016-Jul-27 14:33N 38°30' W 009°47'7 7.1
2016-Jul-27 13:32N 38°23' W 009°45'14 7.0
2016-Jul-27 11:33N 38°09' W 009°41'7 7.2
2016-Jul-27 10:32N 38°02' W 009°39'9 7.4
2016-Jul-27 09:21N 37°54' W 009°37'1110.5
2016-Jul-27 08:19N 37°43' W 009°33'26 9.4
2016-Jul-27 05:33N 37°18' W 009°26'9 7.8
2016-Jul-27 04:22N 37°09' W 009°23'7 7.6
2016-Jul-27 03:30N 37°02' W 009°21'10 7.3
2016-Jul-27 02:05N 36°52' W 009°18'4 7.7
2016-Jul-27 01:33N 36°50' W 009°14'9 7.3
2016-Jul-27 00:18N 36°44' W 009°05'6 8.0
2016-Jul-26 23:33N 36°42' W 008°58'8 7.9
2016-Jul-26 22:33N 36°40' W 008°49'8 7.7
2016-Jul-26 21:33N 36°37' W 008°40'8 7.8
2016-Jul-26 20:33N 36°35' W 008°31'8 7.8
2016-Jul-26 19:33N 36°32' W 008°21'8 8.1
2016-Jul-26 18:33N 36°30' W 008°12'9 8.7
2016-Jul-26 17:33N 36°27' W 008°02'9 8.9
2016-Jul-26 16:33N 36°24' W 007°51'9 9.3
2016-Jul-26 15:33N 36°21' W 007°40'107 9.7
2016-Jul-26 04:34N 35°59' W 005°31'8 8.5
2016-Jul-26 03:34N 36°02' W 005°21'193 9.6
2016-Jul-25 07:18N 36°55' W 001°30'3310.9
2016-Jul-25 04:18N 37°16' W 000°59'810.1
2016-Jul-25 03:33N 37°21' W 000°52'1110.0
2016-Jul-25 02:24N 37°29' W 000°41'8 9.8
2016-Jul-25 01:33N 37°34' W 000°33'10 9.7
2016-Jul-25 00:33N 37°43' W 000°27'10 9.6
2016-Jul-24 23:33N 37°50' W 000°20'10 9.8
2016-Jul-24 22:33N 37°59' W 000°13'65 9.3
2016-Jul-24 15:33N 38°52' E 000°34'2110.6
2016-Jul-24 13:33N 39°08' E 000°52'1 0.5
2016-Jul-24 11:34N 39°08' E 000°51'4 4.0
2016-Jul-24 10:34N 39°12' E 000°54'10 9.4
2016-Jul-24 09:33N 39°19' E 001°01'10 9.6
2016-Jul-24 08:32N 39°27' E 001°09'21 9.9
2016-Jul-24 06:24N 39°43' E 001°26'810.0
2016-Jul-24 05:34N 39°50' E 001°33'10 9.7
2016-Jul-24 04:33N 39°57' E 001°41'10 9.7
2016-Jul-24 03:33N 40°05' E 001°49'10 9.5
2016-Jul-24 02:33N 40°12' E 001°57'10 9.7
2016-Jul-24 01:33N 40°20' E 002°05'10 9.9
2016-Jul-24 00:33N 40°28' E 002°13'10 9.8
2016-Jul-23 23:33N 40°35' E 002°20'9 9.4
2016-Jul-23 22:34N 40°43' E 002°28'10 9.7
2016-Jul-23 21:33N 40°50' E 002°36'10 9.6
2016-Jul-23 20:33N 40°58' E 002°44'10 9.7
2016-Jul-23 19:33N 41°05' E 002°52'10 9.8
2016-Jul-23 18:34N 41°13' E 003°00'10 9.8
2016-Jul-23 17:34N 41°21' E 003°08'11 9.4
2016-Jul-23 16:22N 41°29' E 003°18'12810.0
2016-Jul-23 03:33N 43°13' E 005°00'10 9.9
2016-Jul-23 02:33N 43°23' E 004°57'3 3.2
2016-Jul-23 01:30N 43°25' E 004°53'0 0.0
2016-Jul-23 00:30N 43°25' E 004°53'0 0.0
2016-Jul-22 23:24N 43°25' E 004°53'0 0.0
2016-Jul-22 22:30N 43°25' E 004°53'0 0.0
2016-Jul-22 21:30N 43°25' E 004°53'0 0.0
2016-Jul-22 20:30N 43°25' E 004°53'0 0.0
2016-Jul-22 19:30N 43°25' E 004°53'0 0.0
2016-Jul-22 18:33N 43°25' E 004°53'0 0.0
2016-Jul-22 17:29N 43°25' E 004°53'0 0.0
2016-Jul-22 16:29N 43°25' E 004°53'0 0.0
2016-Jul-22 15:29N 43°25' E 004°53'0 0.0
2016-Jul-22 14:29N 43°25' E 004°53'0 0.0
2016-Jul-22 13:29N 43°25' E 004°53'0 0.0
2016-Jul-22 12:29N 43°25' E 004°53'0 0.0
2016-Jul-22 11:32N 43°25' E 004°53'0 0.0
2016-Jul-22 10:29N 43°25' E 004°53'0 0.0
2016-Jul-22 09:29N 43°25' E 004°53'0 0.0
2016-Jul-22 08:32N 43°25' E 004°53'0 0.0
2016-Jul-22 07:29N 43°25' E 004°53'0 0.0
2016-Jul-22 06:26N 43°25' E 004°53'0 0.0
2016-Jul-21 20:33N 43°25' E 004°53'4 3.8
2016-Jul-21 19:33N 43°22' E 004°58'1 0.8
2016-Jul-21 18:32N 43°22' E 004°57'0 0.0
2016-Jul-21 17:32N 43°22' E 004°57'0 0.0
2016-Jul-21 16:32N 43°22' E 004°57'0 0.0
2016-Jul-21 15:29N 43°22' E 004°57'0 0.0
2016-Jul-21 14:29N 43°22' E 004°57'0 0.0
2016-Jul-21 13:32N 43°22' E 004°57'0 0.0
2016-Jul-21 12:32N 43°22' E 004°57'0 0.0
2016-Jul-21 11:32N 43°22' E 004°57'0 0.0
2016-Jul-21 10:32N 43°22' E 004°57'0 0.0
2016-Jul-21 09:32N 43°22' E 004°57'0 0.0
2016-Jul-21 08:26N 43°22' E 004°57'0 0.0
2016-Jul-21 07:32N 43°22' E 004°57'0 0.0
2016-Jul-21 06:32N 43°22' E 004°57'0 0.0
2016-Jul-21 04:14N 43°22' E 004°57'0 0.0
2016-Jul-21 03:32N 43°22' E 004°57'  
Track history (hours):
 
Tides and Currents Weather Stations Pressure Air Temp Water Temp Dewpoint Dewpoint Depression Visibility Wind Speed Wind Dir Waves Ship Positions

Scf Baltica

Last reported at 2016-Jul-31 03:27 UTC. Time now 2016-Jul-31 09:25 UTC.
Position N 49°04' W 004°51'.

Length 250 m; draft 9 m.

Type: Ship. MMSI: 636012813.

Date/timePositionNaut miles runAvg speedWind from/ knotsBaromVisibWave heightAir tempDewpointWater temp
2016-Jul-31 03:27N 49°04' W 004°51'910.1
2016-Jul-31 02:33N 48°59' W 005°03'1510.2
2016-Jul-31 01:06N 48°52' W 005°23'610.6
2016-Jul-31 00:33N 48°49' W 005°30'  
2016-Jul-28 06:18N 40°18' W 009°50'73 6.8
2016-Jul-27 19:32N 39°05' W 009°51'7 7.1
2016-Jul-27 18:33N 38°58' W 009°51'9 7.3
2016-Jul-27 17:22N 38°49' W 009°51'7 7.2
2016-Jul-27 16:27N 38°43' W 009°51'7 7.1
2016-Jul-27 15:32N 38°36' W 009°49'7 6.9
2016-Jul-27 14:33N 38°30' W 009°47'7 7.1
2016-Jul-27 13:32N 38°23' W 009°45'14 7.0
2016-Jul-27 11:33N 38°09' W 009°41'7 7.2
2016-Jul-27 10:32N 38°02' W 009°39'9 7.4
2016-Jul-27 09:21N 37°54' W 009°37'1110.5
2016-Jul-27 08:19N 37°43' W 009°33'26 9.4
2016-Jul-27 05:33N 37°18' W 009°26'9 7.8
2016-Jul-27 04:22N 37°09' W 009°23'7 7.6
2016-Jul-27 03:30N 37°02' W 009°21'10 7.3
2016-Jul-27 02:05N 36°52' W 009°18'4 7.7
2016-Jul-27 01:33N 36°50' W 009°14'9 7.3
2016-Jul-27 00:18N 36°44' W 009°05'6 8.0
2016-Jul-26 23:33N 36°42' W 008°58'8 7.9
2016-Jul-26 22:33N 36°40' W 008°49'8 7.7
2016-Jul-26 21:33N 36°37' W 008°40'8 7.8
2016-Jul-26 20:33N 36°35' W 008°31'8 7.8
2016-Jul-26 19:33N 36°32' W 008°21'8 8.1
2016-Jul-26 18:33N 36°30' W 008°12'9 8.7
2016-Jul-26 17:33N 36°27' W 008°02'9 8.9
2016-Jul-26 16:33N 36°24' W 007°51'9 9.3
2016-Jul-26 15:33N 36°21' W 007°40'107 9.7
2016-Jul-26 04:34N 35°59' W 005°31'8 8.5
2016-Jul-26 03:34N 36°02' W 005°21'193 9.6
2016-Jul-25 07:18N 36°55' W 001°30'3310.9
2016-Jul-25 04:18N 37°16' W 000°59'810.1
2016-Jul-25 03:33N 37°21' W 000°52'1110.0
2016-Jul-25 02:24N 37°29' W 000°41'8 9.8
2016-Jul-25 01:33N 37°34' W 000°33'10 9.7
2016-Jul-25 00:33N 37°43' W 000°27'10 9.6
2016-Jul-24 23:33N 37°50' W 000°20'10 9.8
2016-Jul-24 22:33N 37°59' W 000°13'65 9.3
2016-Jul-24 15:33N 38°52' E 000°34'2110.6
2016-Jul-24 13:33N 39°08' E 000°52'1 0.5
2016-Jul-24 11:34N 39°08' E 000°51'4 4.0
2016-Jul-24 10:34N 39°12' E 000°54'10 9.4
2016-Jul-24 09:33N 39°19' E 001°01'10 9.6
2016-Jul-24 08:32N 39°27' E 001°09'21 9.9
2016-Jul-24 06:24N 39°43' E 001°26'810.0
2016-Jul-24 05:34N 39°50' E 001°33'10 9.7
2016-Jul-24 04:33N 39°57' E 001°41'10 9.7
2016-Jul-24 03:33N 40°05' E 001°49'10 9.5
2016-Jul-24 02:33N 40°12' E 001°57'10 9.7
2016-Jul-24 01:33N 40°20' E 002°05'10 9.9
2016-Jul-24 00:33N 40°28' E 002°13'10 9.8
2016-Jul-23 23:33N 40°35' E 002°20'9 9.4
2016-Jul-23 22:34N 40°43' E 002°28'10 9.7
2016-Jul-23 21:33N 40°50' E 002°36'10 9.6
2016-Jul-23 20:33N 40°58' E 002°44'10 9.7
2016-Jul-23 19:33N 41°05' E 002°52'10 9.8
2016-Jul-23 18:34N 41°13' E 003°00'10 9.8
2016-Jul-23 17:34N 41°21' E 003°08'11 9.4
2016-Jul-23 16:22N 41°29' E 003°18'12810.0
2016-Jul-23 03:33N 43°13' E 005°00'10 9.9
2016-Jul-23 02:33N 43°23' E 004°57'3 3.2
2016-Jul-23 01:30N 43°25' E 004°53'0 0.0
2016-Jul-23 00:30N 43°25' E 004°53'0 0.0
2016-Jul-22 23:24N 43°25' E 004°53'0 0.0
2016-Jul-22 22:30N 43°25' E 004°53'0 0.0
2016-Jul-22 21:30N 43°25' E 004°53'0 0.0
2016-Jul-22 20:30N 43°25' E 004°53'0 0.0
2016-Jul-22 19:30N 43°25' E 004°53'0 0.0
2016-Jul-22 18:33N 43°25' E 004°53'0 0.0
2016-Jul-22 17:29N 43°25' E 004°53'0 0.0
2016-Jul-22 16:29N 43°25' E 004°53'0 0.0
2016-Jul-22 15:29N 43°25' E 004°53'0 0.0
2016-Jul-22 14:29N 43°25' E 004°53'0 0.0
2016-Jul-22 13:29N 43°25' E 004°53'0 0.0
2016-Jul-22 12:29N 43°25' E 004°53'0 0.0
2016-Jul-22 11:32N 43°25' E 004°53'0 0.0
2016-Jul-22 10:29N 43°25' E 004°53'0 0.0
2016-Jul-22 09:29N 43°25' E 004°53'0 0.0
2016-Jul-22 08:32N 43°25' E 004°53'0 0.0
2016-Jul-22 07:29N 43°25' E 004°53'0 0.0
2016-Jul-22 06:26N 43°25' E 004°53'0 0.0
2016-Jul-21 20:33N 43°25' E 004°53'4 3.8
2016-Jul-21 19:33N 43°22' E 004°58'1 0.8
2016-Jul-21 18:32N 43°22' E 004°57'0 0.0
2016-Jul-21 17:32N 43°22' E 004°57'0 0.0
2016-Jul-21 16:32N 43°22' E 004°57'0 0.0
2016-Jul-21 15:29N 43°22' E 004°57'0 0.0
2016-Jul-21 14:29N 43°22' E 004°57'0 0.0
2016-Jul-21 13:32N 43°22' E 004°57'0 0.0
2016-Jul-21 12:32N 43°22' E 004°57'0 0.0
2016-Jul-21 11:32N 43°22' E 004°57'0 0.0
2016-Jul-21 10:32N 43°22' E 004°57'0 0.0
2016-Jul-21 09:32N 43°22' E 004°57'0 0.0
2016-Jul-21 08:26N 43°22' E 004°57'0 0.0
2016-Jul-21 07:32N 43°22' E 004°57'0 0.0
2016-Jul-21 06:32N 43°22' E 004°57'0 0.0
2016-Jul-21 04:14N 43°22' E 004°57'0 0.0
2016-Jul-21 03:32N 43°22' E 004°57'  

Dump ship's entire track history